sensor_id;sensor_type;location;lat;lon;timestamp;P1;durP1;ratioP1;P2;durP2;ratioP2
41964;SDS011;50120;53.250;8.702;2022-08-04T00:02:50;57.45;;;22.02;;
41964;SDS011;50120;53.250;8.702;2022-08-04T00:05:53;60.33;;;22.23;;
41964;SDS011;50120;53.250;8.702;2022-08-04T00:08:39;66.68;;;22.55;;
41964;SDS011;50120;53.250;8.702;2022-08-04T00:11:12;66.05;;;26.65;;
41964;SDS011;50120;53.250;8.702;2022-08-04T00:13:44;64.18;;;23.88;;
41964;SDS011;50120;53.250;8.702;2022-08-04T00:16:19;59.67;;;23.85;;
41964;SDS011;50120;53.250;8.702;2022-08-04T00:18:59;51.33;;;22.10;;
41964;SDS011;50120;53.250;8.702;2022-08-04T00:21:28;67.82;;;24.33;;
41964;SDS011;50120;53.250;8.702;2022-08-04T00:23:58;58.30;;;23.33;;
41964;SDS011;50120;53.250;8.702;2022-08-04T00:26:25;80.07;;;25.33;;
41964;SDS011;50120;53.250;8.702;2022-08-04T00:28:51;77.30;;;25.27;;
41964;SDS011;50120;53.250;8.702;2022-08-04T00:31:18;71.68;;;26.73;;
41964;SDS011;50120;53.250;8.702;2022-08-04T00:33:44;63.15;;;24.27;;
41964;SDS011;50120;53.250;8.702;2022-08-04T00:36:11;65.70;;;25.38;;
41964;SDS011;50120;53.250;8.702;2022-08-04T00:38:41;60.15;;;23.95;;
41964;SDS011;50120;53.250;8.702;2022-08-04T00:46:50;52.55;;;22.35;;
41964;SDS011;50120;53.250;8.702;2022-08-04T00:52:35;55.38;;;21.75;;
41964;SDS011;50120;53.250;8.702;2022-08-04T00:58:02;65.55;;;23.90;;
41964;SDS011;50120;53.250;8.702;2022-08-04T01:00:45;52.67;;;20.98;;
41964;SDS011;50120;53.250;8.702;2022-08-04T01:17:18;51.92;;;21.23;;
41964;SDS011;50120;53.250;8.702;2022-08-04T01:20:03;60.40;;;22.90;;
41964;SDS011;50120;53.250;8.702;2022-08-04T01:25:43;68.63;;;24.77;;
41964;SDS011;50120;53.250;8.702;2022-08-04T01:27:51;56.70;;;23.00;;
41964;SDS011;50120;53.250;8.702;2022-08-04T01:30:33;53.10;;;22.40;;
41964;SDS011;50120;53.250;8.702;2022-08-04T01:33:02;53.70;;;22.40;;
41964;SDS011;50120;53.250;8.702;2022-08-04T01:40:37;60.13;;;23.98;;
41964;SDS011;50120;53.250;8.702;2022-08-04T01:43:05;54.90;;;23.10;;
41964;SDS011;50120;53.250;8.702;2022-08-04T01:45:33;65.72;;;24.92;;
41964;SDS011;50120;53.250;8.702;2022-08-04T01:48:01;53.35;;;22.45;;
41964;SDS011;50120;53.250;8.702;2022-08-04T01:50:32;51.85;;;21.15;;
41964;SDS011;50120;53.250;8.702;2022-08-04T01:53:00;54.33;;;22.00;;
41964;SDS011;50120;53.250;8.702;2022-08-04T01:55:29;67.45;;;26.17;;
41964;SDS011;50120;53.250;8.702;2022-08-04T01:57:57;54.58;;;23.63;;
41964;SDS011;50120;53.250;8.702;2022-08-04T02:00:25;56.72;;;22.55;;
41964;SDS011;50120;53.250;8.702;2022-08-04T02:02:53;62.05;;;24.88;;
41964;SDS011;50120;53.250;8.702;2022-08-04T02:05:21;53.45;;;21.92;;
41964;SDS011;50120;53.250;8.702;2022-08-04T02:08:34;62.90;;;24.17;;
41964;SDS011;50120;53.250;8.702;2022-08-04T02:11:15;55.22;;;22.20;;
41964;SDS011;50120;53.250;8.702;2022-08-04T02:13:48;56.22;;;24.48;;
41964;SDS011;50120;53.250;8.702;2022-08-04T02:16:28;49.20;;;22.10;;
41964;SDS011;50120;53.250;8.702;2022-08-04T02:19:01;55.53;;;23.02;;
41964;SDS011;50120;53.250;8.702;2022-08-04T02:21:29;59.10;;;24.55;;
41964;SDS011;50120;53.250;8.702;2022-08-04T02:24:00;60.85;;;25.17;;
41964;SDS011;50120;53.250;8.702;2022-08-04T02:26:29;53.95;;;22.83;;
41964;SDS011;50120;53.250;8.702;2022-08-04T02:29:16;51.78;;;21.35;;
41964;SDS011;50120;53.250;8.702;2022-08-04T02:34:31;61.83;;;23.13;;
41964;SDS011;50120;53.250;8.702;2022-08-04T02:37:04;55.30;;;22.65;;
41964;SDS011;50120;53.250;8.702;2022-08-04T02:39:32;56.40;;;22.95;;
41964;SDS011;50120;53.250;8.702;2022-08-04T02:41:59;55.00;;;24.10;;
41964;SDS011;50120;53.250;8.702;2022-08-04T02:44:27;49.67;;;22.17;;
41964;SDS011;50120;53.250;8.702;2022-08-04T02:46:55;65.53;;;24.25;;
41964;SDS011;50120;53.250;8.702;2022-08-04T02:49:22;50.95;;;22.65;;
41964;SDS011;50120;53.250;8.702;2022-08-04T02:51:52;58.58;;;23.80;;
41964;SDS011;50120;53.250;8.702;2022-08-04T02:54:38;58.17;;;23.63;;
41964;SDS011;50120;53.250;8.702;2022-08-04T02:57:08;52.08;;;22.17;;
41964;SDS011;50120;53.250;8.702;2022-08-04T03:02:35;54.80;;;23.63;;
41964;SDS011;50120;53.250;8.702;2022-08-04T03:08:19;51.78;;;22.90;;
41964;SDS011;50120;53.250;8.702;2022-08-04T03:20:05;42.92;;;19.60;;
41964;SDS011;50120;53.250;8.702;2022-08-04T03:22:58;47.90;;;20.75;;
41964;SDS011;50120;53.250;8.702;2022-08-04T03:29:04;51.85;;;20.33;;
41964;SDS011;50120;53.250;8.702;2022-08-04T03:32:07;43.88;;;19.85;;
41964;SDS011;50120;53.250;8.702;2022-08-04T03:51:24;46.03;;;19.65;;
41964;SDS011;50120;53.250;8.702;2022-08-04T04:00:17;54.17;;;22.52;;
41964;SDS011;50120;53.250;8.702;2022-08-04T04:14:06;41.00;;;19.30;;
41964;SDS011;50120;53.250;8.702;2022-08-04T04:27:32;41.53;;;19.58;;
41964;SDS011;50120;53.250;8.702;2022-08-04T04:30:06;37.28;;;16.48;;
41964;SDS011;50120;53.250;8.702;2022-08-04T04:32:45;33.53;;;16.90;;
41964;SDS011;50120;53.250;8.702;2022-08-04T04:40:31;29.40;;;16.23;;
41964;SDS011;50120;53.250;8.702;2022-08-04T04:51:22;25.08;;;13.25;;
41964;SDS011;50120;53.250;8.702;2022-08-04T04:54:07;24.15;;;12.85;;
41964;SDS011;50120;53.250;8.702;2022-08-04T04:56:38;28.55;;;13.25;;
41964;SDS011;50120;53.250;8.702;2022-08-04T04:59:10;26.52;;;13.15;;
41964;SDS011;50120;53.250;8.702;2022-08-04T05:01:45;22.83;;;11.77;;
41964;SDS011;50120;53.250;8.702;2022-08-04T05:19:06;16.15;;;10.40;;
41964;SDS011;50120;53.250;8.702;2022-08-04T05:24:27;19.83;;;10.45;;
41964;SDS011;50120;53.250;8.702;2022-08-04T05:26:59;19.15;;;9.57;;
41964;SDS011;50120;53.250;8.702;2022-08-04T05:32:00;21.73;;;9.90;;
41964;SDS011;50120;53.250;8.702;2022-08-04T05:34:32;16.58;;;9.38;;
41964;SDS011;50120;53.250;8.702;2022-08-04T05:37:06;17.98;;;9.27;;
41964;SDS011;50120;53.250;8.702;2022-08-04T05:39:40;17.63;;;9.60;;
41964;SDS011;50120;53.250;8.702;2022-08-04T05:42:10;13.75;;;8.43;;
41964;SDS011;50120;53.250;8.702;2022-08-04T05:44:37;16.00;;;8.93;;
41964;SDS011;50120;53.250;8.702;2022-08-04T05:47:04;18.90;;;8.40;;
41964;SDS011;50120;53.250;8.702;2022-08-04T05:49:31;15.55;;;8.45;;
41964;SDS011;50120;53.250;8.702;2022-08-04T05:51:59;25.50;;;8.93;;
41964;SDS011;50120;53.250;8.702;2022-08-04T05:54:27;14.02;;;7.60;;
41964;SDS011;50120;53.250;8.702;2022-08-04T05:56:54;15.65;;;8.13;;
41964;SDS011;50120;53.250;8.702;2022-08-04T05:59:22;12.77;;;7.45;;
41964;SDS011;50120;53.250;8.702;2022-08-04T06:01:54;16.58;;;7.70;;
41964;SDS011;50120;53.250;8.702;2022-08-04T06:04:22;16.08;;;6.68;;
41964;SDS011;50120;53.250;8.702;2022-08-04T06:06:54;13.70;;;7.25;;
41964;SDS011;50120;53.250;8.702;2022-08-04T06:09:20;15.70;;;7.93;;
41964;SDS011;50120;53.250;8.702;2022-08-04T06:11:46;17.20;;;7.45;;
41964;SDS011;50120;53.250;8.702;2022-08-04T06:14:14;12.43;;;6.70;;
41964;SDS011;50120;53.250;8.702;2022-08-04T06:16:42;10.05;;;6.65;;
41964;SDS011;50120;53.250;8.702;2022-08-04T06:19:12;12.18;;;6.32;;
41964;SDS011;50120;53.250;8.702;2022-08-04T06:21:42;12.57;;;5.75;;
41964;SDS011;50120;53.250;8.702;2022-08-04T06:24:14;15.55;;;6.78;;
41964;SDS011;50120;53.250;8.702;2022-08-04T06:26:44;12.30;;;6.10;;
41964;SDS011;50120;53.250;8.702;2022-08-04T06:29:12;13.13;;;6.55;;
41964;SDS011;50120;53.250;8.702;2022-08-04T06:31:47;15.32;;;6.35;;
41964;SDS011;50120;53.250;8.702;2022-08-04T06:34:22;16.15;;;6.45;;
41964;SDS011;50120;53.250;8.702;2022-08-04T06:36:50;10.00;;;5.45;;
41964;SDS011;50120;53.250;8.702;2022-08-04T06:39:17;13.50;;;5.82;;
41964;SDS011;50120;53.250;8.702;2022-08-04T06:41:46;10.65;;;5.30;;
41964;SDS011;50120;53.250;8.702;2022-08-04T06:44:14;10.70;;;5.45;;
41964;SDS011;50120;53.250;8.702;2022-08-04T06:46:41;12.88;;;6.00;;
41964;SDS011;50120;53.250;8.702;2022-08-04T06:49:08;10.85;;;5.10;;
41964;SDS011;50120;53.250;8.702;2022-08-04T06:51:35;9.25;;;5.10;;
41964;SDS011;50120;53.250;8.702;2022-08-04T06:54:03;8.52;;;5.28;;
41964;SDS011;50120;53.250;8.702;2022-08-04T06:56:30;13.10;;;6.43;;
41964;SDS011;50120;53.250;8.702;2022-08-04T06:58:58;10.10;;;5.90;;
41964;SDS011;50120;53.250;8.702;2022-08-04T07:01:26;12.40;;;5.30;;
41964;SDS011;50120;53.250;8.702;2022-08-04T07:03:53;12.82;;;4.60;;
41964;SDS011;50120;53.250;8.702;2022-08-04T07:06:22;6.78;;;4.28;;
41964;SDS011;50120;53.250;8.702;2022-08-04T07:08:49;11.23;;;4.55;;
41964;SDS011;50120;53.250;8.702;2022-08-04T07:11:16;10.75;;;3.83;;
41964;SDS011;50120;53.250;8.702;2022-08-04T07:13:44;5.80;;;3.83;;
41964;SDS011;50120;53.250;8.702;2022-08-04T07:16:13;8.70;;;3.47;;
41964;SDS011;50120;53.250;8.702;2022-08-04T07:18:40;8.68;;;3.78;;
41964;SDS011;50120;53.250;8.702;2022-08-04T07:21:07;12.18;;;3.42;;
41964;SDS011;50120;53.250;8.702;2022-08-04T07:23:33;10.85;;;3.40;;
41964;SDS011;50120;53.250;8.702;2022-08-04T07:26:00;7.15;;;3.25;;
41964;SDS011;50120;53.250;8.702;2022-08-04T07:28:26;8.90;;;3.50;;
41964;SDS011;50120;53.250;8.702;2022-08-04T07:30:54;8.00;;;3.10;;
41964;SDS011;50120;53.250;8.702;2022-08-04T07:33:20;9.38;;;3.60;;
41964;SDS011;50120;53.250;8.702;2022-08-04T07:35:48;10.20;;;3.17;;
41964;SDS011;50120;53.250;8.702;2022-08-04T07:38:16;8.13;;;3.30;;
41964;SDS011;50120;53.250;8.702;2022-08-04T07:40:41;9.48;;;3.20;;
41964;SDS011;50120;53.250;8.702;2022-08-04T07:43:08;7.18;;;3.40;;
41964;SDS011;50120;53.250;8.702;2022-08-04T07:45:34;9.82;;;3.80;;
41964;SDS011;50120;53.250;8.702;2022-08-04T07:48:01;8.73;;;3.40;;
41964;SDS011;50120;53.250;8.702;2022-08-04T07:50:31;7.10;;;3.20;;
41964;SDS011;50120;53.250;8.702;2022-08-04T07:52:58;6.78;;;3.25;;
41964;SDS011;50120;53.250;8.702;2022-08-04T07:55:25;6.10;;;3.15;;
41964;SDS011;50120;53.250;8.702;2022-08-04T07:57:52;9.10;;;3.55;;
41964;SDS011;50120;53.250;8.702;2022-08-04T08:00:18;7.00;;;3.17;;
41964;SDS011;50120;53.250;8.702;2022-08-04T08:02:44;4.85;;;2.72;;
41964;SDS011;50120;53.250;8.702;2022-08-04T08:05:14;6.30;;;2.80;;
41964;SDS011;50120;53.250;8.702;2022-08-04T08:07:48;8.50;;;2.90;;
41964;SDS011;50120;53.250;8.702;2022-08-04T08:10:15;5.05;;;2.63;;
41964;SDS011;50120;53.250;8.702;2022-08-04T08:12:41;9.52;;;2.65;;
41964;SDS011;50120;53.250;8.702;2022-08-04T08:15:09;3.92;;;2.60;;
41964;SDS011;50120;53.250;8.702;2022-08-04T08:17:37;9.25;;;2.90;;
41964;SDS011;50120;53.250;8.702;2022-08-04T08:20:03;4.32;;;2.63;;
41964;SDS011;50120;53.250;8.702;2022-08-04T08:22:31;7.88;;;2.63;;
41964;SDS011;50120;53.250;8.702;2022-08-04T08:24:57;8.13;;;2.67;;
41964;SDS011;50120;53.250;8.702;2022-08-04T08:27:23;6.45;;;2.30;;
41964;SDS011;50120;53.250;8.702;2022-08-04T08:29:49;9.15;;;2.55;;
41964;SDS011;50120;53.250;8.702;2022-08-04T08:32:15;5.85;;;2.30;;
41964;SDS011;50120;53.250;8.702;2022-08-04T08:34:41;6.53;;;2.28;;
41964;SDS011;50120;53.250;8.702;2022-08-04T08:39:58;4.97;;;2.63;;
41964;SDS011;50120;53.250;8.702;2022-08-04T08:42:31;4.70;;;2.30;;
41964;SDS011;50120;53.250;8.702;2022-08-04T08:45:27;10.93;;;2.70;;
41964;SDS011;50120;53.250;8.702;2022-08-04T08:48:17;6.63;;;2.50;;
41964;SDS011;50120;53.250;8.702;2022-08-04T09:24:19;8.38;;;2.15;;
41964;SDS011;50120;53.250;8.702;2022-08-04T09:27:02;7.47;;;2.25;;
41964;SDS011;50120;53.250;8.702;2022-08-04T09:46:28;3.90;;;1.90;;
41964;SDS011;50120;53.250;8.702;2022-08-04T09:49:01;11.10;;;2.47;;
41964;SDS011;50120;53.250;8.702;2022-08-04T09:51:42;3.60;;;2.03;;
41964;SDS011;50120;53.250;8.702;2022-08-04T10:02:31;3.20;;;1.83;;
41964;SDS011;50120;53.250;8.702;2022-08-04T10:05:02;3.20;;;1.95;;
41964;SDS011;50120;53.250;8.702;2022-08-04T10:10:41;5.55;;;2.00;;
41964;SDS011;50120;53.250;8.702;2022-08-04T10:13:36;5.57;;;1.90;;
41964;SDS011;50120;53.250;8.702;2022-08-04T10:16:36;4.22;;;2.20;;
41964;SDS011;50120;53.250;8.702;2022-08-04T10:19:27;4.40;;;1.90;;
41964;SDS011;50120;53.250;8.702;2022-08-04T10:22:16;5.40;;;1.98;;
41964;SDS011;50120;53.250;8.702;2022-08-04T10:28:12;3.75;;;1.77;;
41964;SDS011;50120;53.250;8.702;2022-08-04T10:30:22;7.35;;;1.85;;
41964;SDS011;50120;53.250;8.702;2022-08-04T10:35:53;3.53;;;2.10;;
41964;SDS011;50120;53.250;8.702;2022-08-04T10:38:29;4.40;;;1.85;;
41964;SDS011;50120;53.250;8.702;2022-08-04T10:40:58;3.22;;;1.70;;
41964;SDS011;50120;53.250;8.702;2022-08-04T10:46:17;3.75;;;2.58;;
41964;SDS011;50120;53.250;8.702;2022-08-04T10:49:01;4.45;;;2.45;;
41964;SDS011;50120;53.250;8.702;2022-08-04T10:51:44;4.70;;;2.00;;
41964;SDS011;50120;53.250;8.702;2022-08-04T10:54:28;3.30;;;1.92;;
41964;SDS011;50120;53.250;8.702;2022-08-04T11:02:53;5.50;;;1.90;;
41964;SDS011;50120;53.250;8.702;2022-08-04T11:08:34;7.43;;;2.17;;
41964;SDS011;50120;53.250;8.702;2022-08-04T11:14:10;3.33;;;2.20;;
41964;SDS011;50120;53.250;8.702;2022-08-04T11:16:53;2.85;;;1.83;;
41964;SDS011;50120;53.250;8.702;2022-08-04T11:22:14;2.70;;;2.00;;
41964;SDS011;50120;53.250;8.702;2022-08-04T11:30:56;3.60;;;1.67;;
41964;SDS011;50120;53.250;8.702;2022-08-04T11:33:30;2.67;;;1.63;;
41964;SDS011;50120;53.250;8.702;2022-08-04T11:39:07;4.07;;;1.73;;
41964;SDS011;50120;53.250;8.702;2022-08-04T11:44:48;2.33;;;1.85;;
41964;SDS011;50120;53.250;8.702;2022-08-04T11:50:04;4.13;;;1.70;;
41964;SDS011;50120;53.250;8.702;2022-08-04T11:52:39;2.60;;;1.60;;
41964;SDS011;50120;53.250;8.702;2022-08-04T11:55:08;2.80;;;1.55;;
41964;SDS011;50120;53.250;8.702;2022-08-04T11:57:37;3.78;;;1.77;;
41964;SDS011;50120;53.250;8.702;2022-08-04T12:00:05;3.72;;;1.60;;
41964;SDS011;50120;53.250;8.702;2022-08-04T12:05:26;4.18;;;1.90;;
41964;SDS011;50120;53.250;8.702;2022-08-04T12:11:01;2.08;;;1.58;;
41964;SDS011;50120;53.250;8.702;2022-08-04T12:18:32;2.65;;;1.60;;
41964;SDS011;50120;53.250;8.702;2022-08-04T12:21:08;1.73;;;1.60;;
41964;SDS011;50120;53.250;8.702;2022-08-04T12:23:39;2.05;;;1.60;;
41964;SDS011;50120;53.250;8.702;2022-08-04T12:26:08;3.95;;;1.80;;
41964;SDS011;50120;53.250;8.702;2022-08-04T12:28:40;2.90;;;1.60;;
41964;SDS011;50120;53.250;8.702;2022-08-04T12:36:37;2.65;;;1.50;;
41964;SDS011;50120;53.250;8.702;2022-08-04T12:41:37;3.72;;;1.67;;
41964;SDS011;50120;53.250;8.702;2022-08-04T12:44:08;2.08;;;1.67;;
41964;SDS011;50120;53.250;8.702;2022-08-04T12:46:36;2.97;;;2.53;;
41964;SDS011;50120;53.250;8.702;2022-08-04T12:49:04;6.93;;;2.30;;
41964;SDS011;50120;53.250;8.702;2022-08-04T12:51:39;2.70;;;1.88;;
41964;SDS011;50120;53.250;8.702;2022-08-04T12:54:07;4.57;;;2.13;;
41964;SDS011;50120;53.250;8.702;2022-08-04T12:56:35;2.83;;;2.22;;
41964;SDS011;50120;53.250;8.702;2022-08-04T12:59:03;3.63;;;2.08;;
41964;SDS011;50120;53.250;8.702;2022-08-04T13:01:34;4.60;;;2.00;;
41964;SDS011;50120;53.250;8.702;2022-08-04T13:07:02;4.03;;;2.25;;
41964;SDS011;50120;53.250;8.702;2022-08-04T13:09:34;11.88;;;2.47;;
41964;SDS011;50120;53.250;8.702;2022-08-04T13:12:03;4.68;;;2.20;;
41964;SDS011;50120;53.250;8.702;2022-08-04T13:14:40;5.65;;;2.50;;
41964;SDS011;50120;53.250;8.702;2022-08-04T13:17:10;8.30;;;2.30;;
41964;SDS011;50120;53.250;8.702;2022-08-04T13:19:46;8.88;;;3.13;;
41964;SDS011;50120;53.250;8.702;2022-08-04T13:22:15;5.95;;;2.40;;
41964;SDS011;50120;53.250;8.702;2022-08-04T13:24:49;7.18;;;2.75;;
41964;SDS011;50120;53.250;8.702;2022-08-04T13:27:16;7.75;;;3.22;;
41964;SDS011;50120;53.250;8.702;2022-08-04T13:29:43;10.20;;;3.20;;
41964;SDS011;50120;53.250;8.702;2022-08-04T13:32:10;7.20;;;3.25;;
41964;SDS011;50120;53.250;8.702;2022-08-04T13:34:41;8.88;;;2.63;;
41964;SDS011;50120;53.250;8.702;2022-08-04T13:37:08;7.32;;;3.33;;
41964;SDS011;50120;53.250;8.702;2022-08-04T13:39:35;12.30;;;2.85;;
41964;SDS011;50120;53.250;8.702;2022-08-04T13:42:04;11.15;;;3.15;;
41964;SDS011;50120;53.250;8.702;2022-08-04T13:44:34;8.10;;;4.80;;
41964;SDS011;50120;53.250;8.702;2022-08-04T13:47:06;7.75;;;4.68;;
41964;SDS011;50120;53.250;8.702;2022-08-04T13:49:34;6.07;;;3.60;;
41964;SDS011;50120;53.250;8.702;2022-08-04T13:52:03;9.18;;;3.22;;
41964;SDS011;50120;53.250;8.702;2022-08-04T13:54:44;4.88;;;2.88;;
41964;SDS011;50120;53.250;8.702;2022-08-04T13:57:31;6.30;;;2.92;;
41964;SDS011;50120;53.250;8.702;2022-08-04T14:00:03;9.65;;;3.28;;
41964;SDS011;50120;53.250;8.702;2022-08-04T14:05:20;10.27;;;2.83;;
41964;SDS011;50120;53.250;8.702;2022-08-04T14:07:53;10.35;;;3.20;;
41964;SDS011;50120;53.250;8.702;2022-08-04T14:10:23;8.75;;;3.42;;
41964;SDS011;50120;53.250;8.702;2022-08-04T14:12:50;10.27;;;3.28;;
41964;SDS011;50120;53.250;8.702;2022-08-04T14:15:33;9.52;;;3.10;;
41964;SDS011;50120;53.250;8.702;2022-08-04T14:18:17;9.27;;;3.25;;
41964;SDS011;50120;53.250;8.702;2022-08-04T14:20:59;9.40;;;2.88;;
41964;SDS011;50120;53.250;8.702;2022-08-04T14:23:52;6.30;;;3.13;;
41964;SDS011;50120;53.250;8.702;2022-08-04T14:26:38;6.45;;;3.20;;
41964;SDS011;50120;53.250;8.702;2022-08-04T14:29:10;8.35;;;3.13;;
41964;SDS011;50120;53.250;8.702;2022-08-04T14:31:40;10.73;;;3.15;;
41964;SDS011;50120;53.250;8.702;2022-08-04T14:34:08;7.20;;;2.80;;
41964;SDS011;50120;53.250;8.702;2022-08-04T14:36:43;7.45;;;2.60;;
41964;SDS011;50120;53.250;8.702;2022-08-04T14:39:09;11.70;;;3.42;;
41964;SDS011;50120;53.250;8.702;2022-08-04T14:41:44;9.43;;;2.75;;
41964;SDS011;50120;53.250;8.702;2022-08-04T14:46:49;8.07;;;2.75;;
41964;SDS011;50120;53.250;8.702;2022-08-04T14:49:16;9.75;;;2.90;;
41964;SDS011;50120;53.250;8.702;2022-08-04T14:51:43;8.10;;;2.83;;
41964;SDS011;50120;53.250;8.702;2022-08-04T14:54:11;7.32;;;3.00;;
41964;SDS011;50120;53.250;8.702;2022-08-04T14:56:39;6.68;;;2.92;;
41964;SDS011;50120;53.250;8.702;2022-08-04T14:59:07;7.43;;;2.95;;
41964;SDS011;50120;53.250;8.702;2022-08-04T15:01:36;7.68;;;3.13;;
41964;SDS011;50120;53.250;8.702;2022-08-04T15:04:03;9.80;;;3.35;;
41964;SDS011;50120;53.250;8.702;2022-08-04T15:06:32;7.70;;;3.08;;
41964;SDS011;50120;53.250;8.702;2022-08-04T15:09:10;5.43;;;2.67;;
41964;SDS011;50120;53.250;8.702;2022-08-04T15:11:36;5.22;;;2.90;;
41964;SDS011;50120;53.250;8.702;2022-08-04T15:18:09;7.82;;;2.95;;
41964;SDS011;50120;53.250;8.702;2022-08-04T15:23:43;5.43;;;3.05;;
41964;SDS011;50120;53.250;8.702;2022-08-04T15:29:50;4.20;;;2.83;;
41964;SDS011;50120;53.250;8.702;2022-08-04T15:32:26;6.60;;;2.72;;
41964;SDS011;50120;53.250;8.702;2022-08-04T15:35:35;5.47;;;2.58;;
41964;SDS011;50120;53.250;8.702;2022-08-04T15:38:15;9.20;;;2.95;;
41964;SDS011;50120;53.250;8.702;2022-08-04T15:44:20;7.68;;;2.80;;
41964;SDS011;50120;53.250;8.702;2022-08-04T15:49:31;6.28;;;2.60;;
41964;SDS011;50120;53.250;8.702;2022-08-04T16:00:27;5.18;;;3.10;;
41964;SDS011;50120;53.250;8.702;2022-08-04T16:11:08;5.80;;;3.20;;
41964;SDS011;50120;53.250;8.702;2022-08-04T16:16:30;6.20;;;2.85;;
41964;SDS011;50120;53.250;8.702;2022-08-04T16:21:54;4.13;;;2.65;;
41964;SDS011;50120;53.250;8.702;2022-08-04T16:26:48;5.85;;;3.15;;
41964;SDS011;50120;53.250;8.702;2022-08-04T16:34:39;7.50;;;3.10;;
41964;SDS011;50120;53.250;8.702;2022-08-04T16:37:08;6.45;;;2.70;;
41964;SDS011;50120;53.250;8.702;2022-08-04T16:39:35;4.88;;;2.50;;
41964;SDS011;50120;53.250;8.702;2022-08-04T16:50:14;5.15;;;2.65;;
41964;SDS011;50120;53.250;8.702;2022-08-04T16:55:11;5.97;;;2.72;;
41964;SDS011;50120;53.250;8.702;2022-08-04T16:57:40;3.72;;;2.20;;
41964;SDS011;50120;53.250;8.702;2022-08-04T17:00:06;7.22;;;2.30;;
41964;SDS011;50120;53.250;8.702;2022-08-04T17:02:33;2.97;;;2.00;;
41964;SDS011;50120;53.250;8.702;2022-08-04T17:04:59;4.45;;;2.08;;
41964;SDS011;50120;53.250;8.702;2022-08-04T17:07:25;4.30;;;2.00;;
41964;SDS011;50120;53.250;8.702;2022-08-04T17:09:51;5.43;;;2.10;;
41964;SDS011;50120;53.250;8.702;2022-08-04T17:12:17;4.82;;;2.03;;
41964;SDS011;50120;53.250;8.702;2022-08-04T17:14:43;6.63;;;2.30;;
41964;SDS011;50120;53.250;8.702;2022-08-04T17:17:09;5.88;;;2.30;;
41964;SDS011;50120;53.250;8.702;2022-08-04T17:19:35;4.07;;;2.08;;
41964;SDS011;50120;53.250;8.702;2022-08-04T17:22:05;7.63;;;2.33;;
41964;SDS011;50120;53.250;8.702;2022-08-04T17:24:35;3.63;;;2.08;;
41964;SDS011;50120;53.250;8.702;2022-08-04T17:27:04;8.70;;;2.40;;
41964;SDS011;50120;53.250;8.702;2022-08-04T17:29:30;4.25;;;2.30;;
41964;SDS011;50120;53.250;8.702;2022-08-04T17:31:59;4.03;;;2.20;;
41964;SDS011;50120;53.250;8.702;2022-08-04T17:34:24;5.15;;;2.30;;
41964;SDS011;50120;53.250;8.702;2022-08-04T17:36:50;5.97;;;2.45;;
41964;SDS011;50120;53.250;8.702;2022-08-04T17:39:19;6.32;;;2.20;;
41964;SDS011;50120;53.250;8.702;2022-08-04T17:41:53;5.55;;;2.47;;
41964;SDS011;50120;53.250;8.702;2022-08-04T17:44:20;6.82;;;2.53;;
41964;SDS011;50120;53.250;8.702;2022-08-04T17:46:45;5.38;;;2.75;;
41964;SDS011;50120;53.250;8.702;2022-08-04T17:51:41;8.40;;;3.45;;
41964;SDS011;50120;53.250;8.702;2022-08-04T17:54:11;7.05;;;3.22;;
41964;SDS011;50120;53.250;8.702;2022-08-04T17:56:40;11.00;;;3.47;;
41964;SDS011;50120;53.250;8.702;2022-08-04T18:01:45;12.35;;;4.15;;
41964;SDS011;50120;53.250;8.702;2022-08-04T18:04:25;11.68;;;3.70;;
41964;SDS011;50120;53.250;8.702;2022-08-04T18:06:56;11.50;;;4.28;;
41964;SDS011;50120;53.250;8.702;2022-08-04T18:09:27;9.73;;;4.03;;
41964;SDS011;50120;53.250;8.702;2022-08-04T18:11:55;15.63;;;4.75;;
41964;SDS011;50120;53.250;8.702;2022-08-04T18:14:36;15.77;;;4.63;;
41964;SDS011;50120;53.250;8.702;2022-08-04T18:17:06;12.35;;;4.45;;
41964;SDS011;50120;53.250;8.702;2022-08-04T18:19:34;17.65;;;5.40;;
41964;SDS011;50120;53.250;8.702;2022-08-04T18:22:03;13.32;;;5.45;;
41964;SDS011;50120;53.250;8.702;2022-08-04T18:24:31;15.35;;;4.20;;
41964;SDS011;50120;53.250;8.702;2022-08-04T18:27:00;19.33;;;6.57;;
41964;SDS011;50120;53.250;8.702;2022-08-04T18:29:26;16.73;;;5.40;;
41964;SDS011;50120;53.250;8.702;2022-08-04T18:31:55;15.77;;;5.50;;
41964;SDS011;50120;53.250;8.702;2022-08-04T18:34:23;14.07;;;5.32;;
41964;SDS011;50120;53.250;8.702;2022-08-04T18:36:49;14.52;;;5.13;;
41964;SDS011;50120;53.250;8.702;2022-08-04T18:39:22;14.10;;;5.10;;
41964;SDS011;50120;53.250;8.702;2022-08-04T18:41:49;20.58;;;6.35;;
41964;SDS011;50120;53.250;8.702;2022-08-04T18:44:16;17.23;;;5.78;;
41964;SDS011;50120;53.250;8.702;2022-08-04T18:46:45;15.73;;;5.50;;
41964;SDS011;50120;53.250;8.702;2022-08-04T18:49:12;15.05;;;5.32;;
41964;SDS011;50120;53.250;8.702;2022-08-04T18:51:38;20.63;;;5.88;;
41964;SDS011;50120;53.250;8.702;2022-08-04T18:54:04;14.07;;;6.28;;
41964;SDS011;50120;53.250;8.702;2022-08-04T18:56:31;14.40;;;6.05;;
41964;SDS011;50120;53.250;8.702;2022-08-04T18:58:58;16.15;;;6.80;;
41964;SDS011;50120;53.250;8.702;2022-08-04T19:01:25;18.10;;;7.03;;
41964;SDS011;50120;53.250;8.702;2022-08-04T19:03:51;17.17;;;7.53;;
41964;SDS011;50120;53.250;8.702;2022-08-04T19:06:17;14.27;;;6.95;;
41964;SDS011;50120;53.250;8.702;2022-08-04T19:08:46;11.63;;;5.90;;
41964;SDS011;50120;53.250;8.702;2022-08-04T19:11:15;16.52;;;6.88;;
41964;SDS011;50120;53.250;8.702;2022-08-04T19:13:41;14.75;;;7.57;;
41964;SDS011;50120;53.250;8.702;2022-08-04T19:16:10;15.38;;;8.05;;
41964;SDS011;50120;53.250;8.702;2022-08-04T19:18:36;15.73;;;7.65;;
41964;SDS011;50120;53.250;8.702;2022-08-04T19:21:02;17.30;;;8.20;;
41964;SDS011;50120;53.250;8.702;2022-08-04T19:23:28;18.25;;;8.45;;
41964;SDS011;50120;53.250;8.702;2022-08-04T19:25:56;17.58;;;7.88;;
41964;SDS011;50120;53.250;8.702;2022-08-04T19:28:23;17.00;;;7.40;;
41964;SDS011;50120;53.250;8.702;2022-08-04T19:30:49;23.33;;;9.90;;
41964;SDS011;50120;53.250;8.702;2022-08-04T19:33:15;22.48;;;9.05;;
41964;SDS011;50120;53.250;8.702;2022-08-04T19:35:44;17.92;;;8.15;;
41964;SDS011;50120;53.250;8.702;2022-08-04T19:38:10;19.58;;;9.05;;
41964;SDS011;50120;53.250;8.702;2022-08-04T19:40:39;18.58;;;8.57;;
41964;SDS011;50120;53.250;8.702;2022-08-04T19:43:08;16.83;;;7.72;;
41964;SDS011;50120;53.250;8.702;2022-08-04T19:45:34;21.48;;;8.40;;
41964;SDS011;50120;53.250;8.702;2022-08-04T19:48:00;20.73;;;9.18;;
41964;SDS011;50120;53.250;8.702;2022-08-04T19:50:29;16.35;;;8.00;;
41964;SDS011;50120;53.250;8.702;2022-08-04T19:52:58;15.60;;;7.50;;
41964;SDS011;50120;53.250;8.702;2022-08-04T19:55:24;17.02;;;7.47;;
41964;SDS011;50120;53.250;8.702;2022-08-04T19:57:50;19.88;;;7.82;;
41964;SDS011;50120;53.250;8.702;2022-08-04T20:00:20;16.05;;;6.57;;
41964;SDS011;50120;53.250;8.702;2022-08-04T20:02:46;14.10;;;6.80;;
41964;SDS011;50120;53.250;8.702;2022-08-04T20:05:12;18.85;;;7.95;;
41964;SDS011;50120;53.250;8.702;2022-08-04T20:07:38;16.60;;;7.00;;
41964;SDS011;50120;53.250;8.702;2022-08-04T20:10:05;21.05;;;8.05;;
41964;SDS011;50120;53.250;8.702;2022-08-04T20:12:32;20.80;;;7.82;;
41964;SDS011;50120;53.250;8.702;2022-08-04T20:14:58;21.25;;;7.43;;
41964;SDS011;50120;53.250;8.702;2022-08-04T20:17:25;16.13;;;7.38;;
41964;SDS011;50120;53.250;8.702;2022-08-04T20:19:52;17.92;;;7.07;;
41964;SDS011;50120;53.250;8.702;2022-08-04T20:22:20;20.67;;;7.97;;
41964;SDS011;50120;53.250;8.702;2022-08-04T20:24:47;17.10;;;7.65;;
41964;SDS011;50120;53.250;8.702;2022-08-04T20:27:14;17.55;;;7.80;;
41964;SDS011;50120;53.250;8.702;2022-08-04T20:29:45;20.67;;;7.35;;